Time;durP1;ratioP1;P1;durP2;ratioP2;P2;SDS_P1;SDS_P2;PMS_P1;PMS_P2;Temp;Humidity;BMP_temperature;BMP_pressure;BME280_temperature;BME280_humidity;BME280_pressure;Samples;Min_cycle;Max_cycle;Signal;HPM_P1;HPM_P2
2023/05/17 00:00:52;;;;;;;5.47;2.20;;;;;;;13.91;70.41;99198.09;3132826;28;20060;-69
2023/05/17 00:02:24;;;;;;;9.13;1.98;;;;;;;13.90;70.63;99202.47;3133291;28;20155;-69
2023/05/17 00:03:55;;;;;;;7.97;2.20;;;;;;;13.87;70.73;99207.91;3132970;28;20126;-69
2023/05/17 00:05:27;;;;;;;6.18;2.00;;;;;;;13.82;70.85;99212.66;3132828;28;20053;-69
2023/05/17 00:06:59;;;;;;;7.88;1.90;;;;;;;13.76;71.07;99206.03;3133032;28;20075;-69
2023/05/17 00:08:32;;;;;;;7.68;2.33;;;;;;;13.73;71.38;99208.03;3132898;28;20056;-69
2023/05/17 00:10:03;;;;;;;;;;;;;;;13.60;71.46;99210.63;3133449;28;20795;-69
2023/05/17 00:11:35;;;;;;;3.78;2.00;;;;;;;13.60;71.89;99210.63;3139967;28;19957;-68
2023/05/17 00:13:06;;;;;;;7.30;2.40;;;;;;;13.51;72.20;99199.00;3137392;28;20151;-69
2023/05/17 00:14:38;;;;;;;6.97;2.78;;;;;;;13.56;72.33;99203.94;3128374;28;20064;-70
2023/05/17 00:16:10;;;;;;;9.45;2.42;;;;;;;13.54;72.49;99201.41;3130229;28;20049;-70
2023/05/17 00:17:41;;;;;;;5.40;2.30;;;;;;;13.49;72.68;99203.50;3127768;28;20056;-70
2023/05/17 00:19:13;;;;;;;10.43;2.78;;;;;;;13.54;72.75;99218.88;3127916;28;20049;-70
2023/05/17 00:20:44;;;;;;;6.90;2.50;;;;;;;13.53;73.23;99217.22;3127721;28;20055;-70
2023/05/17 00:22:16;;;;;;;13.20;2.40;;;;;;;13.54;73.14;99211.88;3127672;28;20083;-70
2023/05/17 00:23:49;;;;;;;8.93;3.05;;;;;;;13.56;73.35;99212.63;3127627;28;20049;-71
2023/05/17 00:25:21;;;;;;;8.15;3.15;;;;;;;13.50;73.54;99210.41;3130585;28;20529;-70
2023/05/17 00:26:53;;;;;;;5.15;2.97;;;;;;;13.54;73.70;99216.25;3127608;28;20057;-72
2023/05/17 00:28:25;;;;;;;7.05;2.33;;;;;;;13.54;73.89;99221.50;3127624;28;20052;-70
2023/05/17 00:29:57;;;;;;;8.38;3.03;;;;;;;13.53;74.37;99223.28;3118816;28;20057;-70
2023/05/17 00:31:27;;;;;;;9.23;4.50;;;;;;;13.44;74.45;99208.19;3127563;28;20146;-70
2023/05/17 00:32:59;;;;;;;8.05;2.80;;;;;;;13.46;74.97;99201.09;3127632;28;20053;-70
2023/05/17 00:34:30;;;;;;;8.25;2.75;;;;;;;13.47;74.96;99209.78;3127299;28;20252;-69
2023/05/17 00:36:02;;;;;;;7.45;3.38;;;;;;;13.51;75.06;99206.84;3127643;28;20510;-70
2023/05/17 00:37:34;;;;;;;7.30;3.55;;;;;;;13.49;75.22;99208.75;3127336;28;20303;-70
2023/05/17 00:39:07;;;;;;;8.02;3.58;;;;;;;13.41;75.57;99193.56;3129710;28;20048;-71
2023/05/17 00:40:39;;;;;;;;;;;;;;;13.39;75.74;99208.50;3132930;28;20064;-72
2023/05/17 00:42:10;;;;;;;10.35;3.78;;;;;;;13.35;75.97;99195.75;3127335;28;19998;-69
2023/05/17 00:43:42;;;;;;;8.43;3.95;;;;;;;13.37;76.50;99210.41;3127316;28;20569;-69
2023/05/17 00:45:14;;;;;;;9.77;3.70;;;;;;;13.35;76.77;99204.41;3126713;28;20053;-69
2023/05/17 00:46:45;;;;;;;8.70;4.17;;;;;;;13.27;77.10;99183.16;3127541;28;20136;-69
2023/05/17 00:48:19;;;;;;;9.23;4.22;;;;;;;13.34;77.08;99191.44;3127047;28;20044;-69
2023/05/17 00:49:51;;;;;;;9.45;4.97;;;;;;;13.33;77.51;99181.91;3127299;28;20138;-69
2023/05/17 00:51:23;;;;;;;10.80;4.90;;;;;;;13.32;77.74;99188.94;3127388;28;20057;-69
2023/05/17 00:52:56;;;;;;;12.70;4.60;;;;;;;13.32;77.70;99181.09;3127446;28;20067;-69
2023/05/17 00:54:31;;;;;;;16.10;5.30;;;;;;;13.31;77.90;99181.16;3138632;28;20048;-69
2023/05/17 00:56:03;;;;;;;14.25;5.10;;;;;;;13.24;78.19;99174.66;3127286;28;20510;-69
2023/05/17 00:57:35;;;;;;;10.35;4.65;;;;;;;13.16;78.78;99162.06;3127423;28;20092;-69
2023/05/17 00:59:06;;;;;;;6.20;4.18;;;;;;;13.20;78.87;99176.63;3127499;28;20056;-69
2023/05/17 01:00:38;;;;;;;8.45;4.97;;;;;;;13.13;79.39;99176.22;3127057;28;20053;-69
2023/05/17 01:02:11;;;;;;;9.98;4.75;;;;;;;13.13;79.38;99181.44;3127213;28;20061;-69
2023/05/17 01:03:43;;;;;;;8.80;4.50;;;;;;;13.08;79.66;99182.69;3127156;28;20164;-69
2023/05/17 01:05:15;;;;;;;10.32;4.25;;;;;;;13.08;80.06;99185.28;3127432;28;20063;-70
2023/05/17 01:06:47;;;;;;;10.32;4.50;;;;;;;12.96;80.19;99166.84;3127289;28;20048;-71
2023/05/17 01:08:19;;;;;;;16.45;5.60;;;;;;;13.03;80.46;99195.19;3129865;28;20045;-70
2023/05/17 01:09:53;;;;;;;9.18;4.97;;;;;;;12.98;80.61;99180.66;3127195;28;20053;-69
2023/05/17 01:11:32;;;;;;;16.20;5.15;;;;;;;12.93;80.78;99171.44;3127530;28;20048;-69
2023/05/17 01:13:09;;;;;;;8.75;5.00;;;;;;;12.99;80.95;99176.28;3127210;28;20438;-70
2023/05/17 01:14:50;;;;;;;9.68;4.82;;;;;;;13.02;81.09;99186.53;3121990;28;20049;-70
2023/05/17 01:16:29;;;;;;;10.10;4.40;;;;;;;12.94;81.22;99165.28;3127086;28;20160;-69
2023/05/17 01:18:09;;;;;;;10.55;4.05;;;;;;;13.02;81.05;99189.13;3127074;28;20097;-70
2023/05/17 01:19:52;;;;;;;11.20;4.28;;;;;;;13.05;81.08;99198.56;3127211;28;20053;-70
2023/05/17 01:21:37;;;;;;;12.80;4.75;;;;;;;12.96;81.29;99184.31;3130134;28;20490;-69
2023/05/17 01:23:31;;;;;;;7.50;4.25;;;;;;;13.01;81.45;99194.44;3129484;28;20051;-70
2023/05/17 01:25:28;;;;;;;10.15;4.13;;;;;;;12.97;81.52;99199.03;3127234;28;21179;-70
2023/05/17 01:27:05;;;;;;;12.30;4.55;;;;;;;12.96;81.86;99192.97;3116543;28;20053;-70
2023/05/17 01:28:38;;;;;;;11.05;4.47;;;;;;;12.96;81.60;99184.31;3127197;28;20052;-70
2023/05/17 01:30:13;;;;;;;9.82;4.45;;;;;;;12.96;81.90;99173.84;3127073;28;20064;-70
2023/05/17 01:31:45;;;;;;;7.20;3.92;;;;;;;12.94;81.88;99170.50;3127248;28;20053;-69
2023/05/17 01:33:18;;;;;;;8.77;4.25;;;;;;;12.96;82.12;99173.84;3127278;28;20052;-70
2023/05/17 01:34:50;;;;;;;12.43;4.72;;;;;;;12.94;82.22;99168.72;3127085;28;20282;-69
2023/05/17 01:36:22;;;;;;;9.27;4.53;;;;;;;12.93;82.20;99166.22;3137860;28;20052;-70
2023/05/17 01:37:54;;;;;;;15.15;5.20;;;;;;;12.73;82.28;99136.16;3128264;28;20060;-70
2023/05/17 01:39:26;;;;;;;11.70;5.43;;;;;;;12.91;82.48;99155.84;3125854;28;20049;-70
2023/05/17 01:41:08;;;;;;;14.05;6.35;;;;;;;12.87;82.74;99151.78;3126687;28;20057;-70
2023/05/17 01:42:43;;;;;;;14.35;6.30;;;;;;;12.90;82.56;99148.97;3125633;28;20049;-70
2023/05/17 01:44:21;;;;;;;15.93;6.72;;;;;;;12.91;82.48;99150.63;3123942;28;20045;-70
2023/05/17 01:46:01;;;;;;;10.57;6.00;;;;;;;12.96;82.75;99148.56;3126387;28;20057;-70
2023/05/17 01:47:41;;;;;;;16.17;8.10;;;;;;;12.96;82.77;99152.94;3125796;28;20591;-70
2023/05/17 01:49:18;;;;;;;18.42;9.70;;;;;;;13.00;82.94;99167.47;3127023;28;20056;-70
2023/05/17 01:50:52;;;;;;;18.05;8.85;;;;;;;13.00;82.84;99150.97;3127190;28;20508;-70
2023/05/17 01:52:30;;;;;;;14.27;7.32;;;;;;;13.03;82.49;99156.00;3126838;28;20500;-70
2023/05/17 01:54:10;;;;;;;17.30;7.70;;;;;;;13.08;82.67;99151.31;3126907;28;20163;-70
2023/05/17 01:55:51;;;;;;;11.75;6.38;;;;;;;13.06;82.57;99145.34;3126793;28;20052;-70
2023/05/17 01:57:28;;;;;;;12.75;5.97;;;;;;;12.70;82.33;99094.53;3129465;28;20114;-70
2023/05/17 01:59:03;;;;;;;15.40;6.18;;;;;;;13.14;82.43;99170.03;3129585;28;20045;-70
2023/05/17 02:00:38;;;;;;;13.13;7.22;;;;;;;13.16;82.49;99168.16;3129196;28;20096;-70
2023/05/17 02:02:09;;;;;;;11.00;5.88;;;;;;;13.15;82.56;99155.19;3128294;28;20118;-70
2023/05/17 02:03:41;;;;;;;19.48;6.90;;;;;;;13.22;82.43;99159.06;3129386;28;20550;-70
2023/05/17 02:05:12;;;;;;;12.25;6.10;;;;;;;13.24;82.26;99165.03;3129139;28;20549;-69
2023/05/17 02:06:44;;;;;;;15.27;5.85;;;;;;;13.23;82.28;99155.53;3129345;28;20064;-70
2023/05/17 02:08:16;;;;;;;13.55;6.18;;;;;;;13.28;81.94;99155.22;3129195;28;20326;-70
2023/05/17 02:09:47;;;;;;;9.95;5.03;;;;;;;13.28;81.99;99161.31;3129196;28;20110;-70
2023/05/17 02:11:19;;;;;;;10.40;5.40;;;;;;;13.28;81.97;99163.06;3129290;28;20086;-69
2023/05/17 02:12:51;;;;;;;12.85;4.88;;;;;;;13.29;82.04;99154.31;3132105;28;20118;-70
2023/05/17 02:14:24;;;;;;;18.67;5.10;;;;;;;13.28;82.11;99152.63;3133969;28;20097;-70
2023/05/17 02:15:59;;;;;;;;;;;;;;;13.26;81.95;99155.34;3134784;28;20137;-70
2023/05/17 02:17:31;;;;;;;12.10;5.03;;;;;;;13.26;81.99;99155.34;3136419;28;19921;-67
2023/05/17 02:19:03;;;;;;;15.65;5.82;;;;;;;13.16;81.91;99149.00;3142993;28;20510;-70
2023/05/17 02:20:35;;;;;;;9.55;5.40;;;;;;;13.26;81.90;99154.50;3134047;28;20063;-70
2023/05/17 02:22:07;;;;;;;13.85;5.85;;;;;;;13.30;81.77;99169.06;3134297;28;20572;-70
2023/05/17 02:23:39;;;;;;;11.07;5.45;;;;;;;13.29;81.90;99170.84;3134243;28;20056;-70
2023/05/17 02:25:10;;;;;;;11.52;5.68;;;;;;;13.32;81.94;99175.03;3134070;28;20041;-70
2023/05/17 02:26:42;;;;;;;14.10;5.57;;;;;;;13.33;82.01;99166.22;3134278;28;20044;-71
2023/05/17 02:28:14;;;;;;;9.55;4.85;;;;;;;13.31;81.80;99163.72;3134179;28;20788;-71
2023/05/17 02:29:47;;;;;;;12.50;5.88;;;;;;;13.32;81.97;99160.16;3133966;28;20045;-71
2023/05/17 02:31:19;;;;;;;9.05;5.43;;;;;;;13.33;82.19;99161.81;3134062;28;20098;-70
2023/05/17 02:32:51;;;;;;;8.73;4.75;;;;;;;13.37;82.17;99163.31;3132137;28;20273;-71
2023/05/17 02:34:23;;;;;;;12.57;5.25;;;;;;;13.37;82.11;99168.56;3134007;28;20045;-71
2023/05/17 02:35:55;;;;;;;9.63;5.28;;;;;;;13.39;81.73;99163.19;3134025;28;20524;-71
2023/05/17 02:37:27;;;;;;;12.10;5.53;;;;;;;13.38;81.68;99161.53;3133769;28;20163;-71
2023/05/17 02:38:59;;;;;;;11.95;5.18;;;;;;;13.37;81.71;99168.56;3134259;28;20060;-71
2023/05/17 02:40:31;;;;;;;10.65;5.55;;;;;;;13.43;81.79;99177.78;3133283;28;20500;-71
2023/05/17 02:42:01;;;;;;;12.00;5.40;;;;;;;13.41;82.17;99179.63;3133682;28;20107;-71
2023/05/17 02:43:33;;;;;;;10.55;5.45;;;;;;;13.43;81.85;99186.44;3133828;28;20124;-70
2023/05/17 02:45:07;;;;;;;13.90;5.97;;;;;;;13.42;81.83;99176.06;3133910;28;20041;-70
2023/05/17 02:46:38;;;;;;;15.40;5.82;;;;;;;13.43;81.71;99175.16;3133769;28;20114;-70
2023/05/17 02:48:10;;;;;;;10.88;6.15;;;;;;;13.46;81.58;99176.69;3133972;28;20096;-70
2023/05/17 02:49:41;;;;;;;16.02;6.30;;;;;;;13.47;81.97;99194.09;3133879;28;20053;-70
2023/05/17 02:51:13;;;;;;;13.82;5.97;;;;;;;13.41;81.68;99184.88;3133996;28;20053;-71
2023/05/17 02:52:44;;;;;;;9.23;5.78;;;;;;;13.48;81.94;99186.13;3134016;28;20068;-68
2023/05/17 02:54:17;;;;;;;11.95;5.85;;;;;;;13.45;81.73;99181.09;3133672;28;20053;-68
2023/05/17 02:55:48;;;;;;;18.63;6.95;;;;;;;13.45;81.52;99182.88;3133921;28;20438;-68
2023/05/17 02:57:20;;;;;;;12.35;6.03;;;;;;;13.47;81.89;99191.47;3133768;28;20049;-69
2023/05/17 02:58:52;;;;;;;14.60;6.78;;;;;;;13.43;81.82;99188.22;3126314;28;20576;-69
2023/05/17 03:00:25;;;;;;;19.13;6.75;;;;;;;13.46;81.72;99197.63;3134453;28;20185;-71
2023/05/17 03:01:57;;;;;;;18.40;6.32;;;;;;;13.42;81.74;99191.75;3134106;28;20064;-71
2023/05/17 03:03:28;;;;;;;13.05;6.35;;;;;;;13.45;81.81;99193.34;3133737;28;20049;-70
2023/05/17 03:05:00;;;;;;;21.95;7.00;;;;;;;13.43;81.80;99188.22;3133890;28;20049;-69
2023/05/17 03:06:33;;;;;;;15.23;6.72;;;;;;;13.46;82.06;99195.88;3133684;28;20075;-69
2023/05/17 03:08:05;;;;;;;18.60;6.82;;;;;;;13.43;81.98;99196.06;3133120;28;20091;-70
2023/05/17 03:09:36;;;;;;;12.60;6.43;;;;;;;13.42;82.16;99197.81;3133758;28;20542;-70
2023/05/17 03:11:07;;;;;;;12.50;7.20;;;;;;;13.41;81.96;99196.16;3133744;28;20053;-68
2023/05/17 03:12:38;;;;;;;23.40;7.00;;;;;;;13.41;82.13;99198.78;3133547;28;20068;-68
2023/05/17 03:14:10;;;;;;;17.42;6.97;;;;;;;13.41;82.16;99198.78;3134595;28;20502;-68
2023/05/17 03:15:43;;;;;;;16.73;7.07;;;;;;;13.37;82.18;99199.09;3127892;28;20049;-68
2023/05/17 03:17:15;;;;;;;14.90;6.88;;;;;;;13.38;82.48;99203.38;3133338;28;20048;-68
2023/05/17 03:18:46;;;;;;;14.93;6.78;;;;;;;13.42;82.56;99213.53;3133622;28;20527;-68
2023/05/17 03:20:18;;;;;;;14.85;7.88;;;;;;;12.98;82.87;99157.16;3133559;28;20128;-68
2023/05/17 03:21:50;;;;;;;14.32;7.20;;;;;;;13.37;82.99;99220.84;3133703;28;20138;-68
2023/05/17 03:23:21;;;;;;;13.63;6.88;;;;;;;13.38;82.96;99224.31;3133549;28;20095;-67
2023/05/17 03:24:53;;;;;;;12.10;6.43;;;;;;;13.39;82.94;99220.75;3133854;28;20053;-68
2023/05/17 03:26:24;;;;;;;16.50;6.07;;;;;;;13.30;83.04;99216.94;3133518;28;20071;-67
2023/05/17 03:27:56;;;;;;;11.27;5.95;;;;;;;13.38;82.91;99234.75;3136157;28;20052;-68
2023/05/17 03:29:28;;;;;;;11.60;6.13;;;;;;;13.39;82.69;99236.44;3137029;28;20488;-68
2023/05/17 03:31:00;;;;;;;13.32;5.65;;;;;;;13.38;82.62;99230.38;3133473;28;20064;-69
2023/05/17 03:32:32;;;;;;;11.80;5.57;;;;;;;13.36;82.61;99227.00;3133368;28;20049;-68
2023/05/17 03:34:02;;;;;;;14.75;6.35;;;;;;;13.32;82.54;99227.31;3133205;28;20045;-68
2023/05/17 03:35:34;;;;;;;12.50;6.28;;;;;;;13.34;82.46;99231.53;3131493;28;20569;-68
2023/05/17 03:37:06;;;;;;;16.77;5.93;;;;;;;13.33;82.60;99227.22;3132803;28;20553;-68
2023/05/17 03:38:37;;;;;;;14.43;5.25;;;;;;;13.30;82.41;99226.56;3132641;28;20055;-69
2023/05/17 03:40:09;;;;;;;12.90;5.38;;;;;;;13.27;82.33;99230.22;3133221;28;20453;-68
2023/05/17 03:41:41;;;;;;;8.10;5.10;;;;;;;13.23;82.67;99227.91;3133640;28;20150;-68
2023/05/17 03:43:13;;;;;;;9.90;5.38;;;;;;;13.23;82.59;99235.75;3143627;28;20136;-69
2023/05/17 03:44:45;;;;;;;12.13;5.45;;;;;;;13.24;82.94;99232.19;3133334;28;20348;-69
2023/05/17 03:46:18;;;;;;;13.55;5.93;;;;;;;13.26;82.85;99240.81;3132887;28;20109;-68
2023/05/17 03:47:49;;;;;;;10.93;6.35;;;;;;;13.18;82.80;99234.25;3133737;28;20052;-69
2023/05/17 03:49:21;;;;;;;12.43;5.38;;;;;;;13.25;82.96;99247.81;3133247;28;20463;-69
2023/05/17 03:50:53;;;;;;;14.27;5.95;;;;;;;13.23;82.97;99228.72;3133254;28;20049;-68
2023/05/17 03:52:25;;;;;;;11.38;6.93;;;;;;;13.28;82.93;99242.38;3133203;28;20442;-68
2023/05/17 03:54:00;;;;;;;15.75;6.03;;;;;;;13.26;83.19;99246.88;3133230;28;20053;-69
2023/05/17 03:55:31;;;;;;;11.25;5.68;;;;;;;13.31;83.03;99244.78;3133241;28;20045;-68
2023/05/17 03:57:02;;;;;;;14.60;6.25;;;;;;;13.32;83.45;99246.47;3135415;28;20075;-68
2023/05/17 03:58:35;;;;;;;14.75;6.03;;;;;;;13.36;83.05;99241.88;3132968;28;20128;-68
2023/05/17 04:00:09;;;;;;;16.40;6.47;;;;;;;13.37;83.30;99239.16;3133042;28;20040;-69
2023/05/17 04:01:44;;;;;;;10.15;6.50;;;;;;;13.40;83.33;99241.56;3133256;28;20541;-68
2023/05/17 04:03:15;;;;;;;11.38;5.97;;;;;;;13.42;83.25;99241.47;3132739;28;20165;-68
2023/05/17 04:04:51;;;;;;;13.63;6.25;;;;;;;13.41;83.15;99240.63;3132691;28;20045;-68
2023/05/17 04:06:23;;;;;;;11.77;6.28;;;;;;;13.43;83.44;99241.38;3133286;28;20040;-69
2023/05/17 04:07:55;;;;;;;16.38;7.18;;;;;;;13.47;83.48;99238.56;3132945;28;20155;-69
2023/05/17 04:09:26;;;;;;;18.10;6.10;;;;;;;13.50;83.49;99240.97;3132811;28;20092;-68
2023/05/17 04:10:58;;;;;;;15.10;7.00;;;;;;;13.50;83.61;99233.13;3139449;28;20061;-69
2023/05/17 04:12:30;;;;;;;13.88;5.72;;;;;;;13.58;83.55;99241.31;3132853;28;20052;-69
2023/05/17 04:14:01;;;;;;;16.65;6.32;;;;;;;13.62;83.58;99242.75;3132935;28;20056;-69
2023/05/17 04:15:33;;;;;;;15.80;6.28;;;;;;;13.65;83.61;99242.56;3125795;28;20055;-68
2023/05/17 04:17:06;;;;;;;22.52;8.38;;;;;;;13.68;83.57;99244.97;3132918;28;20375;-68
2023/05/17 04:18:39;;;;;;;17.33;6.97;;;;;;;13.71;83.51;99243.94;3132898;28;20052;-67
2023/05/17 04:20:12;;;;;;;13.77;6.22;;;;;;;13.73;83.37;99242.06;3132257;28;20045;-69
2023/05/17 04:21:44;;;;;;;17.02;7.18;;;;;;;13.73;83.47;99247.28;3132908;28;20049;-69
2023/05/17 04:23:15;;;;;;;17.40;8.45;;;;;;;13.75;83.18;99246.22;3132435;28;20059;-69
2023/05/17 04:24:47;;;;;;;14.23;6.72;;;;;;;13.74;83.27;99241.94;3140237;28;20070;-70
2023/05/17 04:26:19;;;;;;;18.73;6.90;;;;;;;13.77;82.98;99239.13;3132940;28;20060;-71
2023/05/17 04:27:51;;;;;;;22.15;8.05;;;;;;;13.78;83.37;99235.56;3132405;28;20052;-71
2023/05/17 04:29:22;;;;;;;14.50;6.70;;;;;;;13.84;82.84;99245.63;3132746;28;20080;-71
2023/05/17 04:30:54;;;;;;;15.60;7.15;;;;;;;13.86;82.99;99243.72;3132559;28;20128;-73
2023/05/17 04:32:27;;;;;;;17.98;6.97;;;;;;;13.84;83.17;99234.28;3132185;28;20071;-71
2023/05/17 04:33:59;;;;;;;21.00;10.50;;;;;;;13.87;83.02;99232.34;3132314;28;20076;-72
2023/05/17 04:35:31;;;;;;;45.30;23.77;;;;;;;13.77;83.14;99212.13;3132549;28;20095;-71
2023/05/17 04:37:02;;;;;;;20.45;8.10;;;;;;;13.96;83.00;99237.88;3132381;28;20052;-73
2023/05/17 04:38:34;;;;;;;16.65;7.25;;;;;;;13.97;82.97;99239.56;3135217;28;20056;-72
2023/05/17 04:40:07;;;;;;;12.57;6.78;;;;;;;13.98;82.68;99236.00;3132433;28;20057;-72
2023/05/17 04:41:39;;;;;;;16.67;7.88;;;;;;;13.93;82.65;99223.22;3132693;28;20053;-72
2023/05/17 04:43:11;;;;;;;15.27;6.85;;;;;;;13.87;82.63;99205.28;3132600;28;20488;-69
2023/05/17 04:44:42;;;;;;;17.83;7.32;;;;;;;14.04;82.75;99232.94;3132113;28;20541;-73
2023/05/17 04:46:14;;;;;;;509.85;278.45;;;;;;;14.09;82.67;99228.25;3132536;28;20045;-73
2023/05/17 04:47:49;;;;;;;114.90;56.00;;;;;;;14.08;83.10;99222.19;3130523;28;20060;-71
2023/05/17 04:49:21;;;;;;;45.53;23.08;;;;;;;14.00;82.72;99200.09;3125780;28;20543;-71
2023/05/17 04:50:54;;;;;;;38.67;21.20;;;;;;;13.74;82.96;99155.59;3129952;28;20218;-71
2023/05/17 04:52:26;;;;;;;25.27;10.23;;;;;;;14.26;82.73;99222.69;3133936;28;20079;-70
2023/05/17 04:53:59;;;;;;;102.53;58.08;;;;;;;14.30;82.77;99233.78;3132102;28;20098;-74
2023/05/17 04:55:31;;;;;;;43.67;13.82;;;;;;;14.31;82.78;99222.34;3132364;28;20052;-67
2023/05/17 04:57:04;;;;;;;22.77;9.95;;;;;;;14.41;82.70;99223.41;3132465;28;20546;-71
2023/05/17 04:58:39;;;;;;;22.23;8.38;;;;;;;14.46;82.70;99228.28;3132308;28;20416;-71
2023/05/17 05:00:14;;;;;;;18.15;7.78;;;;;;;14.51;82.50;99231.44;3132020;28;20454;-72
2023/05/17 05:01:46;;;;;;;23.70;8.25;;;;;;;14.56;82.27;99232.81;3131501;28;20045;-70
2023/05/17 05:03:20;;;;;;;21.42;8.90;;;;;;;14.62;82.27;99230.72;3132026;28;20045;-71
2023/05/17 05:04:51;;;;;;;20.98;8.45;;;;;;;14.65;82.17;99239.19;3132385;28;20416;-67
2023/05/17 05:06:23;;;;;;;18.20;8.77;;;;;;;14.69;82.13;99232.78;3134845;28;20056;-72
2023/05/17 05:07:55;;;;;;;18.83;8.45;;;;;;;14.74;82.04;99241.16;3124757;28;20063;-70
2023/05/17 05:09:26;;;;;;;19.85;8.13;;;;;;;14.77;81.96;99240.09;3132278;28;20045;-69
2023/05/17 05:10:59;;;;;;;19.98;7.88;;;;;;;14.77;81.94;99238.31;3132327;28;20543;-72
2023/05/17 05:12:34;;;;;;;16.70;7.65;;;;;;;14.84;82.07;99243.13;3130627;28;20053;-69
2023/05/17 05:14:11;;;;;;;27.80;7.50;;;;;;;14.84;82.05;99240.50;3131659;28;20041;-70
2023/05/17 05:15:51;;;;;;;17.95;8.13;;;;;;;14.93;81.95;99239.84;3126354;28;20453;-72
2023/05/17 05:17:36;;;;;;;;;;;;;;;;;;;;;
2023/05/17 05:19:10;;;;;;;19.52;8.80;;;;;;;14.97;82.03;99246.56;3130660;28;20136;-69
2023/05/17 05:20:43;;;;;;;28.98;9.88;;;;;;;15.02;82.13;99249.66;3133285;28;20049;-70
2023/05/17 05:22:15;;;;;;;16.83;8.18;;;;;;;15.07;81.70;99241.47;3132168;28;20048;-70
2023/05/17 05:23:47;;;;;;;15.35;8.45;;;;;;;15.11;81.82;99241.13;3132246;28;20087;-69
2023/05/17 05:25:19;;;;;;;20.58;8.57;;;;;;;15.15;81.65;99241.75;3132141;28;20052;-71
2023/05/17 05:26:51;;;;;;;16.33;7.95;;;;;;;15.10;81.84;99226.34;3131971;28;20053;-69
2023/05/17 05:28:23;;;;;;;21.27;9.15;;;;;;;15.23;81.69;99248.13;3127547;28;20056;-70
2023/05/17 05:29:56;;;;;;;18.85;8.60;;;;;;;15.27;81.57;99246.09;3131780;28;20119;-69
2023/05/17 05:31:28;;;;;;;22.35;9.18;;;;;;;15.31;81.53;99250.16;3134167;28;20045;-71
2023/05/17 05:33:00;;;;;;;27.90;8.23;;;;;;;15.35;81.47;99246.38;3134424;28;20457;-68
2023/05/17 05:34:33;;;;;;;20.05;9.52;;;;;;;15.36;81.25;99231.47;3134293;28;20060;-69
2023/05/17 05:36:05;;;;;;;;;;;;;;;15.37;81.27;99235.75;3127317;28;20124;-70
2023/05/17 05:37:37;;;;;;;18.88;8.90;;;;;;;15.36;81.19;99240.16;3133877;28;19924;-74
2023/05/17 05:39:09;;;;;;;20.75;8.98;;;;;;;15.44;81.18;99245.69;3134498;28;20435;-72
2023/05/17 05:40:42;;;;;;;23.55;9.68;;;;;;;15.44;80.96;99240.44;3134265;28;20076;-70
2023/05/17 05:42:14;;;;;;;23.08;9.43;;;;;;;15.50;80.81;99241.78;3130933;28;20056;-73
2023/05/17 05:43:45;;;;;;;27.02;10.40;;;;;;;15.53;80.66;99245.94;3134547;28;20065;-72
2023/05/17 05:45:18;;;;;;;31.25;10.70;;;;;;;15.63;80.61;99255.66;3134179;28;20497;-71
2023/05/17 05:46:53;;;;;;;17.08;9.88;;;;;;;15.66;80.47;99252.78;3134542;28;20057;-74
2023/05/17 05:48:26;;;;;;;23.50;9.73;;;;;;;15.69;80.10;99254.38;3133752;28;20122;-72
2023/05/17 05:50:00;;;;;;;22.98;10.00;;;;;;;15.73;80.01;99252.38;3132555;28;20057;-71
2023/05/17 05:51:32;;;;;;;22.20;9.40;;;;;;;15.75;79.79;99246.06;3133373;28;20057;-73
2023/05/17 05:53:05;;;;;;;22.23;10.27;;;;;;;15.70;79.64;99240.31;3134309;28;20665;-74
2023/05/17 05:54:37;;;;;;;23.02;10.95;;;;;;;15.81;79.53;99247.38;3134133;28;20049;-73
2023/05/17 05:56:09;;;;;;;20.52;10.27;;;;;;;15.85;79.38;99236.53;3134374;28;20132;-75
2023/05/17 05:57:43;;;;;;;19.40;10.40;;;;;;;15.89;79.29;99237.13;3133561;28;20059;-76
2023/05/17 05:59:15;;;;;;;24.85;10.65;;;;;;;15.90;78.86;99231.75;3134189;28;20166;-74
2023/05/17 06:00:47;;;;;;;22.33;9.32;;;;;;;15.98;78.84;99241.69;3134129;28;20049;-71
2023/05/17 06:02:20;;;;;;;32.65;10.10;;;;;;;15.93;78.50;99221.00;3134281;28;20846;-72
2023/05/17 06:03:52;;;;;;;27.70;11.13;;;;;;;16.07;78.67;99238.34;3136758;28;20341;-72
2023/05/17 06:05:25;;;;;;;25.55;10.40;;;;;;;16.12;78.41;99240.63;3134139;28;20510;-73
2023/05/17 06:06:58;;;;;;;22.02;9.98;;;;;;;16.19;78.29;99243.63;3133962;28;20052;-74
2023/05/17 06:08:30;;;;;;;30.30;11.57;;;;;;;16.22;78.13;99240.75;3134018;28;20060;-71
2023/05/17 06:10:02;;;;;;;28.20;10.02;;;;;;;16.29;77.96;99237.50;3134249;28;20317;-72
2023/05/17 06:11:33;;;;;;;20.80;10.27;;;;;;;16.33;77.72;99243.38;3134408;28;20091;-70
2023/05/17 06:13:05;;;;;;;20.20;9.93;;;;;;;16.38;77.32;99242.06;3134375;28;20106;-69
2023/05/17 06:14:37;;;;;;;22.40;9.45;;;;;;;16.46;77.12;99244.09;3129584;28;20054;-70
2023/05/17 06:16:09;;;;;;;17.65;8.20;;;;;;;16.51;76.96;99246.38;3132144;28;20044;-70
2023/05/17 06:17:41;;;;;;;15.60;8.15;;;;;;;16.51;76.55;99247.19;3140182;28;20049;-69
2023/05/17 06:19:13;;;;;;;24.98;7.93;;;;;;;16.46;76.42;99238.84;3134249;28;20139;-68
2023/05/17 06:20:47;;;;;;;17.13;7.63;;;;;;;16.56;76.05;99250.31;3134210;28;20442;-72
2023/05/17 06:22:19;;;;;;;28.13;8.30;;;;;;;16.64;75.92;99265.47;3133446;28;20041;-70
2023/05/17 06:23:51;;;;;;;16.77;7.45;;;;;;;16.65;75.71;99259.25;3122839;28;20076;-72
2023/05/17 06:25:23;;;;;;;20.40;8.60;;;;;;;16.64;75.34;99264.63;3133903;28;20102;-71
2023/05/17 06:26:55;;;;;;;21.20;7.70;;;;;;;16.67;75.39;99261.75;3133723;28;20057;-71
2023/05/17 06:28:27;;;;;;;24.23;8.73;;;;;;;16.69;75.04;99262.50;3133839;28;20057;-70
2023/05/17 06:29:59;;;;;;;13.07;7.57;;;;;;;16.49;74.99;99222.00;3133965;28;20511;-71
2023/05/17 06:31:31;;;;;;;16.42;8.30;;;;;;;16.69;74.75;99254.59;3142881;28;20127;-73
2023/05/17 06:33:03;;;;;;;13.52;7.60;;;;;;;16.53;74.26;99220.78;3137080;28;20446;-72
2023/05/17 06:34:35;;;;;;;19.58;8.45;;;;;;;16.73;74.21;99251.59;3133851;28;20060;-72
2023/05/17 06:36:10;;;;;;;16.35;8.50;;;;;;;16.76;74.20;99247.91;3133651;28;20084;-73
2023/05/17 06:37:42;;;;;;;20.15;8.40;;;;;;;16.75;74.14;99243.59;3133675;28;20128;-72
2023/05/17 06:39:14;;;;;;;17.73;7.93;;;;;;;16.76;74.07;99238.22;3133701;28;20423;-71
2023/05/17 06:40:46;;;;;;;18.50;8.32;;;;;;;16.80;73.94;99249.34;3133693;28;20114;-69
2023/05/17 06:42:18;;;;;;;19.92;8.15;;;;;;;16.81;73.76;99254.47;3132376;28;20044;-73
2023/05/17 06:43:50;;;;;;;22.20;8.65;;;;;;;16.82;73.71;99261.41;3133944;28;20045;-70
2023/05/17 06:45:22;;;;;;;17.58;8.07;;;;;;;16.83;73.75;99257.84;3136634;28;20191;-73
2023/05/17 06:46:55;;;;;;;22.08;9.85;;;;;;;16.85;73.46;99265.59;3133765;28;20437;-71
2023/05/17 06:48:27;;;;;;;;;;;;;;;16.79;73.88;99266.06;3134072;28;20053;-72
2023/05/17 06:49:59;;;;;;;22.00;8.20;;;;;;;16.77;73.86;99263.59;3133840;28;19920;-73
2023/05/17 06:51:32;;;;;;;15.70;8.70;;;;;;;16.85;73.58;99265.59;3133724;28;20052;-70
2023/05/17 06:53:04;;;;;;;19.42;8.50;;;;;;;16.62;73.40;99222.69;3133693;28;20057;-71
2023/05/17 06:54:36;;;;;;;17.48;8.27;;;;;;;16.89;73.32;99268.81;3121415;28;20041;-72
2023/05/17 06:56:09;;;;;;;26.17;9.55;;;;;;;16.89;73.20;99272.28;3133181;28;20533;-72
2023/05/17 06:57:41;;;;;;;24.27;9.60;;;;;;;16.89;73.11;99274.06;3133677;28;20061;-72
2023/05/17 06:59:13;;;;;;;24.58;9.65;;;;;;;16.71;73.15;99256.16;3138429;28;20045;-74
2023/05/17 07:00:45;;;;;;;23.23;8.98;;;;;;;16.91;73.14;99285.31;3135619;28;20048;-73
2023/05/17 07:02:17;;;;;;;22.48;9.63;;;;;;;16.91;73.08;99288.75;3133341;28;20067;-72
2023/05/17 07:03:49;;;;;;;15.82;8.27;;;;;;;16.91;73.03;99290.56;3133387;28;20045;-72
2023/05/17 07:05:22;;;;;;;18.08;8.77;;;;;;;16.90;73.26;99295.00;3133571;28;20103;-73
2023/05/17 07:06:55;;;;;;;;;;;;;;;16.86;73.22;99297.97;3133898;28;20055;-71
2023/05/17 07:08:27;;;;;;;24.38;9.18;;;;;;;16.87;73.21;99305.75;3133324;28;19921;-71
2023/05/17 07:10:03;;;;;;;24.63;9.90;;;;;;;16.89;73.04;99305.63;3132545;28;20045;-72
2023/05/17 07:11:35;;;;;;;72.47;41.17;;;;;;;16.87;73.02;99305.75;3133478;28;20114;-70
2023/05/17 07:13:07;;;;;;;220.27;141.90;;;;;;;16.91;72.86;99316.88;3137440;28;20041;-71
2023/05/17 07:14:39;;;;;;;27.88;12.57;;;;;;;16.92;72.75;99314.13;3135643;28;20115;-69